Time;durP1;ratioP1;P1;durP2;ratioP2;P2;SDS_P1;SDS_P2;PMS_P1;PMS_P2;Temp;Humidity;BMP_temperature;BMP_pressure;BME280_temperature;BME280_humidity;BME280_pressure;Samples;Min_cycle;Max_cycle;Signal;HPM_P1;HPM_P2
2021/05/12 00:00:18;;;;;;;16.60;14.82;;;;;;;18.66;63.90;99868.94;5095076;28;20475;-67
2021/05/12 00:02:43;;;;;;;16.75;14.98;;;;;;;18.12;65.81;99874.53;5094189;28;20102;-66
2021/05/12 00:05:09;;;;;;;21.88;16.27;;;;;;;18.11;65.37;99880.81;5079200;28;20185;-66
2021/05/12 00:07:35;;;;;;;17.48;15.75;;;;;;;17.76;65.49;99882.56;5073685;28;20032;-66
2021/05/12 00:10:03;;;;;;;17.83;15.95;;;;;;;18.30;64.73;99878.88;5074916;28;20105;-66
2021/05/12 00:12:28;;;;;;;18.13;16.23;;;;;;;17.56;66.26;99884.47;5095111;28;20020;-66
2021/05/12 00:14:53;;;;;;;17.00;14.30;;;;;;;18.20;65.64;99882.97;5095221;28;20050;-66
2021/05/12 00:17:20;;;;;;;18.38;16.67;;;;;;;18.79;63.57;99881.59;5093094;28;20027;-66
2021/05/12 00:19:53;;;;;;;16.95;15.13;;;;;;;17.95;66.19;99873.59;5095198;28;20203;-66
2021/05/12 00:22:32;;;;;;;17.13;15.35;;;;;;;17.47;67.32;99874.25;5092700;28;20035;-67
2021/05/12 00:24:58;;;;;;;17.33;15.65;;;;;;;18.00;65.16;99868.03;5093914;28;20031;-66
2021/05/12 00:27:23;;;;;;;18.00;15.38;;;;;;;18.46;64.73;99870.91;5074663;28;20107;-66
2021/05/12 00:29:48;;;;;;;16.55;14.80;;;;;;;18.72;63.41;99878.41;5073609;28;20103;-67
2021/05/12 00:32:14;;;;;;;15.95;14.35;;;;;;;18.22;64.48;99889.09;5073673;28;20032;-67
2021/05/12 00:34:39;;;;;;;17.48;15.60;;;;;;;17.07;69.52;99886.91;5090032;28;20475;-67
2021/05/12 00:37:05;;;;;;;17.23;15.63;;;;;;;16.59;71.31;99890.00;5093106;28;20035;-66
2021/05/12 00:39:30;;;;;;;17.23;15.50;;;;;;;17.30;70.29;99886.63;5095169;28;20024;-66
2021/05/12 00:41:55;;;;;;;17.15;15.40;;;;;;;17.70;67.95;99875.75;5094039;28;20026;-67
2021/05/12 00:44:21;;;;;;;16.80;14.52;;;;;;;18.00;67.23;99876.03;5093703;28;20024;-67
2021/05/12 00:46:50;;;;;;;16.75;15.02;;;;;;;18.37;65.34;99865.22;5092951;28;20028;-66
2021/05/12 00:49:16;;;;;;;17.20;15.50;;;;;;;17.54;68.60;99874.81;5093426;28;20024;-67
2021/05/12 00:51:43;;;;;;;16.08;14.05;;;;;;;17.22;69.83;99879.94;5093461;28;20345;-66
2021/05/12 00:54:09;;;;;;;17.20;15.50;;;;;;;17.60;69.15;99877.16;5092730;28;20026;-66
2021/05/12 00:56:37;;;;;;;17.58;15.70;;;;;;;18.74;63.95;99859.63;5088171;28;20024;-66
2021/05/12 00:59:02;;;;;;;16.05;14.38;;;;;;;18.38;64.04;99861.59;5085177;28;20032;-66
2021/05/12 01:01:28;;;;;;;16.55;14.85;;;;;;;18.20;65.26;99857.16;5091924;28;20080;-66
2021/05/12 01:03:53;;;;;;;15.90;14.20;;;;;;;18.36;64.82;99860.78;5093085;28;20020;-67
2021/05/12 01:06:25;;;;;;;15.93;14.32;;;;;;;18.38;64.48;99854.44;5093347;28;20032;-66
2021/05/12 01:08:51;;;;;;;16.15;14.20;;;;;;;18.31;64.36;99858.41;5072608;28;20020;-66
2021/05/12 01:11:16;;;;;;;15.15;13.65;;;;;;;18.12;65.19;99855.84;5074148;28;20107;-67
2021/05/12 01:13:42;;;;;;;14.60;13.07;;;;;;;17.98;66.25;99867.22;5073897;28;20527;-66
2021/05/12 01:16:07;;;;;;;14.82;13.35;;;;;;;18.52;63.40;99867.03;5088348;28;20024;-66
2021/05/12 01:18:32;;;;;;;15.88;14.23;;;;;;;17.98;65.19;99883.25;5092466;28;20043;-67
2021/05/12 01:21:00;;;;;;;18.63;14.02;;;;;;;17.60;67.11;99881.63;5092936;28;20030;-67
2021/05/12 01:23:29;;;;;;;15.13;13.40;;;;;;;17.64;66.10;99875.22;5092543;28;20059;-67
2021/05/12 01:25:55;;;;;;;15.52;12.88;;;;;;;17.64;67.18;99872.53;5092463;28;20023;-67
2021/05/12 01:28:23;;;;;;;15.00;13.15;;;;;;;18.34;64.70;99875.09;5091756;28;20086;-67
2021/05/12 01:31:01;;;;;;;15.82;13.90;;;;;;;19.16;61.67;99867.94;5093006;28;20378;-67
2021/05/12 01:36:48;;;;;;;;;;;;;;;18.07;65.07;99877.41;5075009;28;20035;-66
2021/05/12 01:39:14;;;;;;;15.57;14.07;;;;;;;17.63;65.67;99886.78;5082480;28;19912;-66
2021/05/12 01:41:40;;;;;;;15.82;14.10;;;;;;;16.74;70.24;99897.25;5092261;28;20407;-67
2021/05/12 01:44:09;;;;;;;16.20;14.50;;;;;;;17.01;70.67;99899.53;5085776;28;20048;-66
2021/05/12 01:46:35;;;;;;;16.17;14.68;;;;;;;17.68;67.38;99903.44;5073098;28;20024;-66
2021/05/12 01:49:01;;;;;;;16.58;14.75;;;;;;;17.60;67.43;99900.31;5073069;28;20033;-66
2021/05/12 01:51:27;;;;;;;16.80;15.02;;;;;;;17.89;66.79;99896.13;5077986;28;20027;-67
2021/05/12 01:53:52;;;;;;;17.15;15.32;;;;;;;18.07;66.05;99893.41;5085179;28;20025;-66
2021/05/12 01:56:18;;;;;;;15.50;13.90;;;;;;;18.15;66.66;99893.03;5091880;28;20028;-66
2021/05/12 01:58:43;;;;;;;16.23;14.60;;;;;;;18.34;65.63;99888.44;5092743;28;20028;-66
2021/05/12 02:01:08;;;;;;;16.35;14.55;;;;;;;19.10;63.17;99893.22;5091289;28;20498;-66
2021/05/12 02:03:34;;;;;;;16.48;14.85;;;;;;;18.87;63.97;99882.00;5092813;28;20073;-67
2021/05/12 02:05:59;;;;;;;18.30;16.52;;;;;;;19.29;62.13;99889.50;5082315;28;20041;-66
2021/05/12 02:08:27;;;;;;;17.15;15.43;;;;;;;18.83;63.63;99892.00;5071122;28;20136;-67
2021/05/12 02:10:57;;;;;;;16.60;14.95;;;;;;;18.68;63.45;99883.03;5079258;28;20565;-66
2021/05/12 02:13:24;;;;;;;17.77;15.48;;;;;;;18.91;62.92;99882.72;5091676;28;20024;-66
2021/05/12 02:15:50;;;;;;;18.35;16.35;;;;;;;19.16;62.40;99882.19;5091634;28;20069;-66
2021/05/12 02:18:16;;;;;;;17.23;15.57;;;;;;;18.87;63.42;99868.66;5092450;28;20467;-66
2021/05/12 02:20:41;;;;;;;16.83;15.10;;;;;;;19.32;62.24;99878.63;5085392;28;20036;-66
2021/05/12 02:23:10;;;;;;;18.23;16.25;;;;;;;19.38;62.27;99880.94;5077858;28;20039;-66
2021/05/12 02:25:36;;;;;;;17.58;15.65;;;;;;;19.38;61.51;99890.75;5090647;28;20038;-67
2021/05/12 02:28:01;;;;;;;18.95;16.90;;;;;;;19.58;61.26;99885.09;5071585;28;20029;-66
2021/05/12 02:30:27;;;;;;;16.83;15.23;;;;;;;19.53;61.25;99878.28;5074753;28;20062;-66
2021/05/12 02:32:55;;;;;;;21.58;16.90;;;;;;;19.69;61.26;99883.59;5091659;28;20550;-65
2021/05/12 02:35:20;;;;;;;17.40;15.77;;;;;;;19.98;60.17;99878.28;5092497;28;20437;-66
2021/05/12 02:37:46;;;;;;;17.25;15.55;;;;;;;18.84;62.67;99875.03;5076298;28;20080;-66
2021/05/12 02:40:13;;;;;;;18.27;16.48;;;;;;;18.54;65.25;99882.97;5072770;28;20025;-66
2021/05/12 02:42:39;;;;;;;18.73;15.63;;;;;;;18.15;67.55;99877.91;5072808;28;20185;-66
2021/05/12 02:45:05;;;;;;;17.33;15.57;;;;;;;19.09;63.19;99881.69;5090550;28;20118;-66
2021/05/12 02:47:31;;;;;;;18.17;16.45;;;;;;;19.17;62.66;99880.38;5085315;28;20024;-67
2021/05/12 02:49:56;;;;;;;18.17;16.15;;;;;;;19.82;59.86;99879.22;5090421;28;20270;-67
2021/05/12 02:52:21;;;;;;;19.00;17.05;;;;;;;19.82;60.14;99886.38;5072955;28;20139;-66
2021/05/12 02:54:47;;;;;;;18.10;16.38;;;;;;;19.85;59.68;99876.34;5072176;28;20502;-66
2021/05/12 02:57:12;;;;;;;18.63;16.73;;;;;;;19.65;60.35;99876.72;5086738;28;20028;-67
2021/05/12 02:59:38;;;;;;;18.23;16.40;;;;;;;20.06;59.51;99883.19;5071926;28;20035;-66
2021/05/12 03:02:03;;;;;;;19.27;16.58;;;;;;;20.05;59.56;99886.81;5072116;28;20036;-66
2021/05/12 03:04:29;;;;;;;18.45;16.50;;;;;;;20.08;59.43;99890.16;5070885;28;20516;-67
2021/05/12 03:06:56;;;;;;;17.55;15.70;;;;;;;19.75;60.18;99888.59;5075624;28;20032;-67
2021/05/12 03:09:22;;;;;;;18.02;16.13;;;;;;;19.20;62.07;99888.19;5090333;28;20434;-67
2021/05/12 03:11:47;;;;;;;18.27;16.52;;;;;;;19.38;61.76;99885.41;5070086;28;20025;-66
2021/05/12 03:14:12;;;;;;;17.80;15.32;;;;;;;19.06;62.15;99884.53;5077516;28;20097;-66
2021/05/12 03:16:37;;;;;;;18.42;16.27;;;;;;;18.12;66.77;99885.19;5078667;28;20079;-66
2021/05/12 03:19:06;;;;;;;18.58;16.67;;;;;;;18.73;64.21;99882.78;5090556;28;20364;-66
2021/05/12 03:21:33;;;;;;;17.80;16.10;;;;;;;18.65;64.99;99883.22;5090387;28;20055;-67
2021/05/12 03:24:00;;;;;;;17.27;15.57;;;;;;;18.89;63.57;99884.59;5070161;28;20066;-66
2021/05/12 03:26:25;;;;;;;17.77;15.88;;;;;;;18.10;65.51;99892.44;5074334;28;20032;-66
2021/05/12 03:28:50;;;;;;;19.45;17.10;;;;;;;18.29;65.55;99889.63;5091768;28;20111;-66
2021/05/12 03:31:16;;;;;;;18.83;16.88;;;;;;;18.71;64.30;99887.38;5090675;28;20020;-66
2021/05/12 03:33:41;;;;;;;19.27;16.50;;;;;;;19.46;61.64;99878.69;5071868;28;20365;-66
2021/05/12 03:36:07;;;;;;;18.95;17.10;;;;;;;19.39;61.49;99876.44;5072524;28;20032;-66
2021/05/12 03:38:33;;;;;;;17.95;16.05;;;;;;;19.04;62.87;99883.72;5078377;28;20033;-66
2021/05/12 03:40:58;;;;;;;17.42;15.63;;;;;;;19.16;62.74;99878.63;5077592;28;20134;-67
2021/05/12 03:43:24;;;;;;;17.58;15.77;;;;;;;19.28;62.23;99872.59;5081899;28;20082;-66
2021/05/12 03:45:49;;;;;;;18.17;15.57;;;;;;;19.14;62.68;99886.75;5071244;28;20028;-67
2021/05/12 03:48:14;;;;;;;17.08;15.27;;;;;;;18.65;64.12;99871.69;5086548;28;20101;-67
2021/05/12 03:50:40;;;;;;;15.65;13.98;;;;;;;18.95;63.08;99881.59;5071554;28;20500;-67
2021/05/12 03:53:05;;;;;;;17.95;15.65;;;;;;;18.58;63.87;99893.38;5073562;28;20067;-67
2021/05/12 03:55:31;;;;;;;17.50;15.30;;;;;;;19.01;62.59;99894.59;5072258;28;20107;-67
2021/05/12 03:57:56;;;;;;;15.88;14.27;;;;;;;18.66;64.06;99898.31;5070077;28;20048;-66
2021/05/12 04:00:22;;;;;;;16.08;14.57;;;;;;;18.17;65.80;99899.19;5071423;28;20304;-66
2021/05/12 04:02:47;;;;;;;16.70;14.90;;;;;;;18.71;64.05;99906.06;5082996;28;20051;-66
2021/05/12 04:05:13;;;;;;;16.17;14.68;;;;;;;18.98;62.90;99908.13;5089666;28;20033;-66
2021/05/12 04:07:39;;;;;;;16.58;14.82;;;;;;;18.13;66.13;99916.28;5089889;28;20491;-67
2021/05/12 04:10:06;;;;;;;16.60;14.13;;;;;;;18.87;63.40;99915.88;5090102;28;20028;-65
2021/05/12 04:12:31;;;;;;;15.43;13.93;;;;;;;18.43;64.46;99936.94;5089816;28;20089;-67
2021/05/12 04:14:57;;;;;;;15.00;13.50;;;;;;;18.73;64.55;99928.19;5086832;28;20036;-66
2021/05/12 04:17:22;;;;;;;17.00;14.60;;;;;;;19.67;61.14;99933.66;5072936;28;20380;-66
2021/05/12 04:19:47;;;;;;;15.48;13.98;;;;;;;19.14;63.74;99926.00;5071124;28;20559;-66
2021/05/12 04:22:13;;;;;;;16.50;14.90;;;;;;;19.61;61.89;99925.03;5070860;28;20028;-66
2021/05/12 04:24:40;;;;;;;19.13;15.13;;;;;;;19.33;62.20;99917.75;5069835;28;20458;-66
2021/05/12 04:27:05;;;;;;;17.83;15.80;;;;;;;19.74;60.82;99930.50;5075615;28;20108;-67
2021/05/12 04:29:30;;;;;;;19.20;16.00;;;;;;;19.91;60.07;99938.50;5074563;28;20099;-67
2021/05/12 04:31:56;;;;;;;17.75;16.00;;;;;;;20.11;59.67;99932.81;5079746;28;20432;-66
2021/05/12 04:34:21;;;;;;;18.33;16.50;;;;;;;20.13;59.70;99928.22;5091936;28;20043;-66
2021/05/12 04:36:46;;;;;;;18.52;16.13;;;;;;;20.13;59.51;99925.56;5079739;28;20025;-66
2021/05/12 04:39:12;;;;;;;16.95;15.18;;;;;;;20.32;59.17;99935.13;5074566;28;20055;-66
2021/05/12 04:41:37;;;;;;;17.50;15.48;;;;;;;19.93;60.30;99928.53;5089090;28;20028;-66
2021/05/12 04:44:03;;;;;;;18.55;16.67;;;;;;;19.94;60.13;99930.28;5090011;28;20023;-66
2021/05/12 04:46:29;;;;;;;16.88;15.27;;;;;;;19.24;62.22;99929.84;5074253;28;20036;-66
2021/05/12 04:48:54;;;;;;;17.85;16.05;;;;;;;19.99;59.30;99938.88;5073154;28;20111;-66
2021/05/12 04:51:21;;;;;;;16.80;15.15;;;;;;;19.82;60.70;99939.91;5073133;28;20394;-66
2021/05/12 04:53:46;;;;;;;17.05;15.25;;;;;;;18.94;62.81;99939.47;5074058;28;20028;-66
2021/05/12 04:56:12;;;;;;;18.35;16.50;;;;;;;19.49;62.01;99937.31;5073229;28;20017;-66
2021/05/12 04:58:37;;;;;;;17.63;15.23;;;;;;;19.29;61.12;99943.81;5081770;28;20397;-66
2021/05/12 05:01:03;;;;;;;18.05;16.30;;;;;;;19.99;59.87;99946.91;5092034;28;20032;-66
2021/05/12 05:03:28;;;;;;;15.63;14.05;;;;;;;19.33;61.65;99945.38;5083897;28;20020;-66
2021/05/12 05:05:53;;;;;;;19.02;17.00;;;;;;;19.64;61.40;99947.22;5080975;28;20067;-66
2021/05/12 05:08:19;;;;;;;18.20;16.10;;;;;;;19.94;60.05;99951.69;5081320;28;20403;-66
2021/05/12 05:10:44;;;;;;;16.80;15.10;;;;;;;18.96;62.79;99955.44;5080443;28;20028;-67
2021/05/12 05:13:09;;;;;;;15.55;13.15;;;;;;;18.00;65.91;99967.56;5083408;28;20073;-66
2021/05/12 05:15:35;;;;;;;15.90;14.30;;;;;;;18.34;65.76;99970.31;5088665;28;20031;-66
2021/05/12 05:18:00;;;;;;;17.08;15.38;;;;;;;18.68;64.11;99964.97;5076756;28;20097;-66
2021/05/12 05:20:28;;;;;;;17.55;14.52;;;;;;;19.47;62.12;99955.25;5082094;28;20055;-66
2021/05/12 05:22:53;;;;;;;15.98;13.90;;;;;;;19.57;60.83;99957.41;5080956;28;20017;-66
2021/05/12 05:25:19;;;;;;;16.17;13.95;;;;;;;18.95;63.08;99959.94;5082144;28;20145;-66
2021/05/12 05:27:44;;;;;;;17.20;15.40;;;;;;;18.98;62.70;99958.91;5081207;28;20066;-66
2021/05/12 05:30:10;;;;;;;17.63;15.80;;;;;;;19.51;61.82;99971.13;5087908;28;20032;-66
2021/05/12 05:32:35;;;;;;;16.63;14.40;;;;;;;19.76;60.63;99970.56;5076775;28;20445;-66
2021/05/12 05:35:01;;;;;;;20.52;15.13;;;;;;;18.40;64.90;99986.00;5057667;28;20035;-67
2021/05/12 05:37:26;;;;;;;15.52;13.95;;;;;;;19.05;62.78;99981.66;5073827;28;20056;-66
2021/05/12 05:39:51;;;;;;;16.17;14.57;;;;;;;19.19;62.98;99985.38;5076863;28;20025;-65
2021/05/12 05:42:17;;;;;;;16.67;14.98;;;;;;;19.57;61.70;99982.31;5077638;28;20060;-67
2021/05/12 05:44:42;;;;;;;16.08;14.50;;;;;;;18.52;64.75;99992.53;5078371;28;20024;-66
2021/05/12 05:47:07;;;;;;;15.93;14.35;;;;;;;18.98;64.21;99983.78;5080391;28;20398;-67
2021/05/12 05:49:35;;;;;;;16.30;14.65;;;;;;;19.82;61.32;99983.56;5078365;28;20020;-66
2021/05/12 05:52:00;;;;;;;15.98;14.35;;;;;;;19.73;60.69;99992.13;5073432;28;20031;-66
2021/05/12 05:54:25;;;;;;;16.63;14.45;;;;;;;18.73;63.41;99992.28;5081261;28;20103;-66
2021/05/12 05:56:51;;;;;;;18.55;14.50;;;;;;;19.33;62.22;99996.16;5085749;28;20050;-66
2021/05/12 05:59:16;;;;;;;14.98;13.40;;;;;;;18.77;63.43;100004.53;5084849;28;20020;-67
2021/05/12 06:01:42;;;;;;;14.52;13.02;;;;;;;19.28;61.81;99989.34;5083411;28;20031;-66
2021/05/12 06:04:07;;;;;;;15.43;13.27;;;;;;;18.46;64.87;100011.53;5082558;28;20024;-66
2021/05/12 06:06:33;;;;;;;13.85;12.48;;;;;;;18.57;63.82;100014.47;5082486;28;20037;-66
2021/05/12 06:08:58;;;;;;;15.20;13.27;;;;;;;18.11;65.06;100008.91;5084209;28;20028;-66
2021/05/12 06:11:24;;;;;;;15.02;13.23;;;;;;;18.61;63.32;100008.97;5088619;28;20035;-66
2021/05/12 06:13:50;;;;;;;13.13;11.90;;;;;;;18.89;63.16;100007.47;5074192;28;20055;-66
2021/05/12 06:16:18;;;;;;;14.55;12.85;;;;;;;18.76;62.23;100015.28;5071425;28;20028;-66
2021/05/12 06:18:45;;;;;;;14.88;12.60;;;;;;;18.72;61.86;100015.50;5084078;28;20081;-66
2021/05/12 06:21:11;;;;;;;15.63;13.38;;;;;;;18.38;64.48;100021.75;5086612;28;20028;-66
2021/05/12 06:23:37;;;;;;;16.15;13.63;;;;;;;18.60;63.65;100018.78;5091605;28;20436;-66
2021/05/12 06:26:04;;;;;;;17.08;13.23;;;;;;;17.76;64.74;100018.56;5088009;28;20066;-66
2021/05/12 06:28:29;;;;;;;15.60;13.38;;;;;;;18.30;64.84;100022.13;5092648;28;20403;-66
2021/05/12 06:30:55;;;;;;;15.93;12.60;;;;;;;18.62;62.58;100021.38;5090658;28;20024;-66
2021/05/12 06:33:20;;;;;;;17.20;13.23;;;;;;;18.37;62.84;100025.38;5092804;28;20027;-66
2021/05/12 06:35:45;;;;;;;16.80;14.00;;;;;;;18.80;61.84;100031.09;5075798;28;20544;-66
2021/05/12 06:38:11;;;;;;;16.92;13.75;;;;;;;18.44;62.34;100032.97;5072211;28;20029;-67
2021/05/12 06:40:37;;;;;;;16.38;14.15;;;;;;;18.45;63.28;100036.50;5073434;28;20028;-65
2021/05/12 06:43:06;;;;;;;17.35;14.00;;;;;;;18.91;61.79;100048.34;5073074;28;20024;-65
2021/05/12 06:45:31;;;;;;;20.13;15.30;;;;;;;18.71;60.98;100047.63;5071954;28;20071;-67
2021/05/12 06:47:57;;;;;;;16.45;14.15;;;;;;;18.57;61.65;100051.00;5070856;28;20063;-66
2021/05/12 06:50:23;;;;;;;16.83;13.98;;;;;;;18.12;63.09;100051.50;5070794;28;20024;-66
2021/05/12 06:52:53;;;;;;;18.98;14.15;;;;;;;17.90;64.18;100051.69;5070544;28;20020;-65
2021/05/12 06:55:18;;;;;;;20.10;13.98;;;;;;;18.11;64.38;100048.91;5072064;28;20043;-68
2021/05/12 06:57:43;;;;;;;20.88;14.90;;;;;;;18.23;63.67;100048.28;5070739;28;20484;-66
2021/05/12 07:00:09;;;;;;;19.02;14.70;;;;;;;17.51;64.26;100046.41;5072067;28;20476;-66
2021/05/12 07:02:35;;;;;;;18.63;15.13;;;;;;;17.49;64.77;100052.78;5071811;28;20024;-66
2021/05/12 07:05:00;;;;;;;18.20;14.05;;;;;;;17.56;65.89;100047.09;5071825;28;20033;-66
2021/05/12 07:07:25;;;;;;;18.95;14.90;;;;;;;18.21;63.14;100044.84;5070522;28;20023;-66
2021/05/12 07:09:50;;;;;;;20.25;15.25;;;;;;;18.06;64.07;100046.44;5071876;28;20024;-65
2021/05/12 07:12:17;;;;;;;18.48;14.52;;;;;;;18.23;62.82;100056.28;5071831;28;20027;-67
2021/05/12 07:14:42;;;;;;;18.30;14.88;;;;;;;18.29;63.00;100052.44;5071914;28;20104;-66
2021/05/12 07:17:07;;;;;;;19.23;15.38;;;;;;;17.37;67.61;100049.75;5072088;28;20028;-65
2021/05/12 07:19:33;;;;;;;19.13;14.52;;;;;;;17.04;68.42;100059.22;5070152;28;20021;-66
2021/05/12 07:21:58;;;;;;;18.63;15.02;;;;;;;17.99;64.28;100063.69;5071477;28;20028;-66
2021/05/12 07:24:23;;;;;;;19.30;14.82;;;;;;;18.12;63.28;100070.19;5069834;28;20039;-66
2021/05/12 07:26:50;;;;;;;17.98;14.63;;;;;;;17.86;65.41;100064.31;5071217;28;20025;-66
2021/05/12 07:29:15;;;;;;;19.23;15.30;;;;;;;17.31;65.99;100066.91;5072043;28;20434;-65
2021/05/12 07:31:41;;;;;;;20.70;14.57;;;;;;;18.10;63.90;100063.22;5070510;28;20081;-66
2021/05/12 07:34:10;;;;;;;19.80;14.82;;;;;;;17.60;67.51;100054.94;5071726;28;20021;-67
2021/05/12 07:36:37;;;;;;;19.77;15.43;;;;;;;17.97;64.49;100053.09;5083594;28;20119;-66
2021/05/12 07:39:03;;;;;;;22.08;16.33;;;;;;;17.86;67.09;100052.78;5071719;28;20120;-65
2021/05/12 07:41:28;;;;;;;19.95;14.70;;;;;;;18.78;62.50;100057.03;5085433;28;20390;-66
2021/05/12 07:43:53;;;;;;;20.15;15.00;;;;;;;17.95;66.10;100049.66;5090022;28;20107;-66
2021/05/12 07:46:19;;;;;;;21.10;15.00;;;;;;;18.53;62.67;100055.66;5088455;28;20024;-66
2021/05/12 07:48:44;;;;;;;18.83;15.90;;;;;;;17.43;65.58;100052.13;5087302;28;20028;-66
2021/05/12 07:51:10;;;;;;;22.20;16.63;;;;;;;18.18;65.27;100058.34;5076949;28;20035;-66
2021/05/12 07:53:35;;;;;;;20.08;15.23;;;;;;;18.01;64.13;100060.00;5070310;28;20396;-66
2021/05/12 07:56:00;;;;;;;20.83;16.13;;;;;;;18.02;63.76;100067.09;5071154;28;20016;-66
2021/05/12 07:58:25;;;;;;;22.77;16.95;;;;;;;17.98;65.88;100062.84;5071272;28;20063;-66
2021/05/12 08:00:52;;;;;;;18.83;16.05;;;;;;;17.92;65.79;100065.81;5071440;28;20021;-66
2021/05/12 08:03:17;;;;;;;20.63;16.38;;;;;;;18.43;63.73;100065.06;5069955;28;20400;-65
2021/05/12 08:05:42;;;;;;;20.75;16.98;;;;;;;18.82;61.75;100077.28;5072868;28;20024;-66
2021/05/12 08:08:09;;;;;;;21.02;16.73;;;;;;;18.94;61.83;100070.41;5073936;28;20071;-66
2021/05/12 08:10:34;;;;;;;19.45;17.38;;;;;;;18.78;61.43;100074.84;5075171;28;20031;-66
2021/05/12 08:13:00;;;;;;;18.27;15.40;;;;;;;18.79;61.26;100072.09;5075131;28;20605;-66
2021/05/12 08:15:25;;;;;;;17.38;15.00;;;;;;;18.89;62.17;100069.81;5074851;28;20028;-66
2021/05/12 08:17:52;;;;;;;19.90;16.13;;;;;;;18.84;61.63;100063.84;5075374;28;20025;-66
2021/05/12 08:20:17;;;;;;;21.75;16.88;;;;;;;18.85;61.23;100073.59;5075048;28;20529;-66
2021/05/12 08:22:42;;;;;;;19.05;16.23;;;;;;;18.73;61.02;100069.75;5074732;28;20135;-66
2021/05/12 08:25:08;;;;;;;17.95;15.15;;;;;;;18.12;62.87;100066.66;5073667;28;20070;-66
2021/05/12 08:27:33;;;;;;;19.25;15.48;;;;;;;18.59;61.99;100068.69;5074513;28;20021;-66
2021/05/12 08:30:00;;;;;;;17.02;13.65;;;;;;;18.17;63.49;100076.16;5074786;28;20040;-66
2021/05/12 08:32:25;;;;;;;18.30;14.55;;;;;;;18.06;63.79;100073.13;5074626;28;20028;-66
2021/05/12 08:34:50;;;;;;;17.60;14.68;;;;;;;17.77;64.88;100073.63;5074716;28;20035;-66
2021/05/12 08:37:15;;;;;;;16.85;14.50;;;;;;;17.61;64.63;100081.50;5073245;28;20016;-66
2021/05/12 08:39:41;;;;;;;18.75;15.52;;;;;;;18.04;63.64;100081.19;5074502;28;20028;-66
2021/05/12 08:42:07;;;;;;;19.02;15.30;;;;;;;17.72;64.75;100086.34;5074679;28;20545;-66
2021/05/12 08:44:33;;;;;;;16.58;13.30;;;;;;;17.92;64.51;100080.03;5073251;28;20052;-66
2021/05/12 08:47:00;;;;;;;18.08;15.35;;;;;;;17.67;65.10;100085.69;5074115;28;20028;-66
2021/05/12 08:49:26;;;;;;;17.02;13.98;;;;;;;18.23;63.30;100096.31;5056546;28;20028;-66
2021/05/12 08:51:52;;;;;;;18.45;14.70;;;;;;;17.40;64.99;100102.06;5074444;28;20021;-66
2021/05/12 08:54:18;;;;;;;21.25;16.10;;;;;;;17.85;63.30;100102.59;5085328;28;20031;-66
2021/05/12 08:56:43;;;;;;;19.23;15.32;;;;;;;17.65;65.13;100092.91;5083590;28;20505;-66
2021/05/12 08:59:09;;;;;;;19.33;16.17;;;;;;;18.02;63.07;100104.44;5079186;28;20028;-66
2021/05/12 09:01:34;;;;;;;19.13;15.43;;;;;;;17.95;63.37;100097.69;5095247;28;20066;-66
2021/05/12 09:04:02;;;;;;;21.17;15.88;;;;;;;18.29;62.75;100096.03;5095054;28;20431;-66
2021/05/12 09:06:27;;;;;;;18.17;14.85;;;;;;;18.33;62.85;100099.38;5076963;28;20028;-66
2021/05/12 09:08:52;;;;;;;18.77;14.15;;;;;;;17.86;66.00;100098.13;5093213;28;20028;-66
2021/05/12 09:11:18;;;;;;;18.75;15.82;;;;;;;18.07;65.50;100097.06;5093099;28;20028;-65
2021/05/12 09:13:49;;;;;;;20.30;15.57;;;;;;;17.80;66.60;100100.16;5094198;28;20020;-66
2021/05/12 09:16:16;;;;;;;20.70;16.38;;;;;;;18.08;65.73;100098.78;5084957;28;20428;-66
2021/05/12 09:18:41;;;;;;;18.95;15.57;;;;;;;18.30;64.86;100095.06;5091344;28;20038;-66
2021/05/12 09:21:07;;;;;;;19.40;15.38;;;;;;;18.93;61.97;100090.06;5105710;28;20027;-66
2021/05/12 09:23:38;;;;;;;18.58;14.32;;;;;;;17.71;66.79;100084.63;5090430;28;20102;-66
2021/05/12 09:26:10;;;;;;;17.08;14.98;;;;;;;18.14;66.00;100088.78;5071940;28;20021;-66
2021/05/12 09:28:35;;;;;;;16.52;13.73;;;;;;;18.57;63.76;100094.59;5071909;28;20063;-66
2021/05/12 09:31:11;;;;;;;18.75;13.10;;;;;;;18.73;61.86;100104.47;5080814;28;20275;-66
2021/05/12 09:33:44;;;;;;;19.88;14.20;;;;;;;17.91;65.47;100096.09;5091718;28;20540;-66
2021/05/12 09:36:11;;;;;;;15.90;13.20;;;;;;;18.12;65.55;100085.31;5091834;28;20115;-66
2021/05/12 09:38:37;;;;;;;19.10;14.73;;;;;;;17.88;65.69;100093.59;5091683;28;20024;-66
2021/05/12 09:41:10;;;;;;;20.67;14.43;;;;;;;17.87;66.99;100083.88;5092339;28;20348;-66
2021/05/12 09:43:37;;;;;;;17.58;12.60;;;;;;;18.47;62.84;100085.31;5092420;28;20085;-66
2021/05/12 09:46:25;;;;;;;15.55;13.02;;;;;;;19.33;59.76;100083.50;5093439;28;20111;-66
2021/05/12 09:49:00;;;;;;;13.68;12.07;;;;;;;19.38;60.31;100069.91;5076656;28;20112;-66
2021/05/12 09:51:51;;;;;;;13.88;11.48;;;;;;;18.87;61.87;100073.50;5095482;28;20030;-66
2021/05/12 09:54:21;;;;;;;16.15;11.95;;;;;;;18.68;62.31;100069.97;5076195;28;20475;-67
2021/05/12 09:56:54;;;;;;;15.65;12.30;;;;;;;18.65;61.98;100069.28;5093534;28;20513;-66
2021/05/12 09:59:23;;;;;;;15.20;12.00;;;;;;;19.02;60.66;100074.47;5077130;28;20100;-66
2021/05/12 10:01:54;;;;;;;16.38;12.85;;;;;;;18.37;63.35;100081.44;5088091;28;20378;-66
2021/05/12 10:04:27;;;;;;;16.27;12.20;;;;;;;18.52;62.70;100082.44;5100974;28;20101;-65
2021/05/12 10:06:54;;;;;;;15.90;12.00;;;;;;;18.77;63.14;100084.66;5094201;28;20020;-66
2021/05/12 10:09:22;;;;;;;15.48;11.35;;;;;;;19.07;62.05;100080.44;5092385;28;20035;-66
2021/05/12 10:12:07;;;;;;;16.92;11.73;;;;;;;18.77;60.85;100082.00;5081683;28;20364;-67
2021/05/12 10:14:34;;;;;;;16.27;12.27;;;;;;;18.31;63.28;100083.44;5093578;28;20024;-66
2021/05/12 10:17:01;;;;;;;16.67;12.85;;;;;;;18.52;63.36;100085.97;5099389;28;20038;-67
2021/05/12 10:19:27;;;;;;;18.98;13.50;;;;;;;18.92;62.02;100088.34;5099897;28;20593;-65
2021/05/12 10:21:52;;;;;;;16.80;12.98;;;;;;;18.35;62.12;100084.16;5091991;28;20024;-66
2021/05/12 10:24:18;;;;;;;18.10;13.85;;;;;;;16.84;68.58;100093.91;5092438;28;20080;-66
2021/05/12 10:26:44;;;;;;;16.60;13.48;;;;;;;17.37;66.41;100094.22;5101592;28;20113;-66
2021/05/12 10:29:12;;;;;;;18.00;14.45;;;;;;;18.24;63.54;100091.88;5102429;28;20102;-66
2021/05/12 10:31:37;;;;;;;19.90;16.38;;;;;;;18.46;62.21;100096.97;5089912;28;20108;-66
2021/05/12 10:34:03;;;;;;;18.52;15.75;;;;;;;17.88;64.62;100085.59;5088415;28;20107;-66
2021/05/12 10:36:28;;;;;;;17.40;15.07;;;;;;;17.91;63.30;100085.44;5087540;28;20102;-66
2021/05/12 10:38:56;;;;;;;21.35;16.35;;;;;;;18.15;64.42;100087.84;5084755;28;20034;-66
2021/05/12 10:41:48;;;;;;;20.25;16.60;;;;;;;17.94;63.92;100085.28;5075563;28;20034;-65
2021/05/12 10:44:21;;;;;;;19.55;15.18;;;;;;;18.55;62.40;100085.81;5082146;28;20032;-66
2021/05/12 10:47:07;;;;;;;19.15;16.23;;;;;;;17.06;68.45;100085.84;5068812;28;20073;-66
2021/05/12 10:49:32;;;;;;;20.05;17.13;;;;;;;17.70;66.16;100086.41;5075348;28;20109;-65
2021/05/12 10:52:05;;;;;;;20.38;17.60;;;;;;;19.08;60.81;100084.88;5104394;28;20027;-67
2021/05/12 10:54:57;;;;;;;20.10;17.55;;;;;;;18.88;61.64;100085.91;5093669;28;20761;-66
2021/05/12 10:57:44;;;;;;;22.30;17.73;;;;;;;18.63;62.74;100088.06;5082522;28;20058;-66
2021/05/12 11:00:10;;;;;;;19.42;17.35;;;;;;;18.56;63.24;100087.53;5086793;28;20114;-66
2021/05/12 11:02:50;;;;;;;21.02;17.38;;;;;;;18.37;61.84;100084.09;5081830;28;20035;-66
2021/05/12 11:05:17;;;;;;;21.48;18.05;;;;;;;19.01;62.09;100087.00;5085029;28;20038;-67
2021/05/12 11:08:14;;;;;;;21.83;17.05;;;;;;;18.92;61.90;100083.00;5102070;28;20073;-67
2021/05/12 11:11:13;;;;;;;18.00;15.68;;;;;;;18.54;62.46;100094.75;5050528;28;20032;-67
2021/05/12 11:13:40;;;;;;;19.80;16.63;;;;;;;18.94;61.69;100085.59;4997176;28;20033;-65
2021/05/12 11:16:07;;;;;;;20.33;17.27;;;;;;;18.80;62.47;100091.66;5064594;28;20131;-65